Time;durP1;ratioP1;P1;durP2;ratioP2;P2;SDS_P1;SDS_P2;PMS_P1;PMS_P2;Temp;Humidity;BMP_temperature;BMP_pressure;BME280_temperature;BME280_humidity;BME280_pressure;Samples;Min_cycle;Max_cycle;Signal;HPM_P1;HPM_P2
2021/07/21 00:00:48;;;;;;;19.90;12.90;;;16.80;72.20;;;;;;5054671;28;20021;-73
2021/07/21 00:03:13;;;;;;;24.80;13.93;;;16.70;72.60;;;;;;5054715;28;20581;-74
2021/07/21 00:05:39;;;;;;;20.13;12.48;;;16.60;72.90;;;;;;5056623;28;20060;-75
2021/07/21 00:08:05;;;;;;;19.23;12.95;;;16.60;73.20;;;;;;5055537;28;20381;-75
2021/07/21 00:10:32;;;;;;;20.65;12.82;;;16.60;74.00;;;;;;5054590;28;20029;-74
2021/07/21 00:20:05;;;;;;;17.23;12.00;;;16.80;72.30;;;;;;5054519;28;20025;-74
2021/07/21 00:21:06;;;;;;;19.40;12.20;;;16.70;72.60;;;;;;5040179;28;20044;-75
2021/07/21 00:23:32;;;;;;;20.80;13.35;;;16.70;72.40;;;;;;5054245;28;20028;-73
2021/07/21 00:25:57;;;;;;;19.83;12.50;;;16.60;72.70;;;;;;5054155;28;20422;-73
2021/07/21 00:28:24;;;;;;;17.75;12.38;;;16.50;73.10;;;;;;5054207;28;20029;-73
2021/07/21 00:30:49;;;;;;;17.42;11.85;;;16.50;73.10;;;;;;5054068;28;20123;-74
2021/07/21 00:33:15;;;;;;;18.38;10.85;;;16.50;73.30;;;;;;5053952;28;20036;-74
2021/07/21 00:35:42;;;;;;;20.67;12.35;;;16.50;73.40;;;;;;5053748;28;20029;-74
2021/07/21 00:38:08;;;;;;;16.00;11.63;;;16.50;73.10;;;;;;5053980;28;20036;-74
2021/07/21 00:40:33;;;;;;;18.80;12.90;;;16.50;72.90;;;;;;5053981;28;20021;-74
2021/07/21 00:43:00;;;;;;;17.05;11.30;;;16.40;73.30;;;;;;5053941;28;20489;-74
2021/07/21 00:45:26;;;;;;;18.58;12.60;;;16.50;73.10;;;;;;5035925;28;20112;-74
2021/07/21 00:47:51;;;;;;;15.43;11.18;;;16.50;73.00;;;;;;5053798;28;20092;-74
2021/07/21 00:50:17;;;;;;;19.10;11.35;;;16.60;72.70;;;;;;5053649;28;20029;-75
2021/07/21 00:52:43;;;;;;;18.55;12.77;;;16.60;72.60;;;;;;5052858;28;20483;-74
2021/07/21 00:55:12;;;;;;;19.13;11.88;;;16.60;72.40;;;;;;5053615;28;20029;-75
2021/07/21 00:57:38;;;;;;;19.40;12.02;;;16.60;72.20;;;;;;5053618;28;20029;-73
2021/07/21 01:00:09;;;;;;;21.92;11.13;;;16.60;72.30;;;;;;5053572;28;20385;-74
2021/07/21 01:02:34;;;;;;;15.45;11.30;;;16.50;72.30;;;;;;5053989;28;20017;-79
2021/07/21 01:05:03;;;;;;;24.27;12.10;;;16.50;72.50;;;;;;5056615;28;20048;-80
2021/07/21 01:07:28;;;;;;;17.13;11.20;;;16.50;72.40;;;;;;5058639;28;20025;-81
2021/07/21 01:09:54;;;;;;;20.95;12.77;;;16.40;72.80;;;;;;5057423;28;20044;-79
2021/07/21 01:12:43;;;;;;;19.95;11.73;;;16.30;72.80;;;;;;5053906;28;20025;-80
2021/07/21 01:15:21;;;;;;;19.02;11.60;;;16.20;73.20;;;;;;5053803;28;20041;-80
2021/07/21 01:18:02;;;;;;;20.27;10.90;;;16.00;73.90;;;;;;5053157;28;20503;-80
2021/07/21 01:20:59;;;;;;;17.23;11.15;;;15.90;74.50;;;;;;5053502;28;20025;-78
2021/07/21 01:23:43;;;;;;;;;;;15.90;74.50;;;;;;5053736;28;20056;-81
2021/07/21 01:26:10;;;;;;;16.67;10.90;;;15.90;74.40;;;;;;5053284;28;19905;-80
2021/07/21 01:28:37;;;;;;;16.73;11.20;;;15.90;74.30;;;;;;5053349;28;20021;-78
2021/07/21 01:31:07;;;;;;;16.02;10.75;;;16.00;74.30;;;;;;5053180;28;20088;-80
2021/07/21 01:33:37;;;;;;;17.52;11.40;;;16.00;74.00;;;;;;5053156;28;20122;-81
2021/07/21 01:36:07;;;;;;;16.92;10.63;;;16.10;73.80;;;;;;5053010;28;20035;-81
2021/07/21 01:38:37;;;;;;;16.17;11.48;;;16.00;73.40;;;;;;5053187;28;20025;-80
2021/07/21 01:41:10;;;;;;;19.52;11.57;;;16.00;73.60;;;;;;5053119;28;20025;-81
2021/07/21 01:43:40;;;;;;;19.13;11.35;;;16.00;74.00;;;;;;5053320;28;20025;-79
2021/07/21 01:46:06;;;;;;;16.33;11.57;;;15.90;73.80;;;;;;5058562;28;20025;-79
2021/07/21 01:48:35;;;;;;;17.75;11.40;;;15.90;74.00;;;;;;5075418;28;20021;-76
2021/07/21 01:51:01;;;;;;;17.33;10.77;;;15.80;74.20;;;;;;5054672;28;20028;-75
2021/07/21 01:53:33;;;;;;;23.88;11.80;;;15.70;74.50;;;;;;5052895;28;20072;-80
2021/07/21 01:55:59;;;;;;;15.90;11.25;;;15.70;74.60;;;;;;5052980;28;20052;-80
2021/07/21 01:58:28;;;;;;;17.25;10.95;;;15.60;74.90;;;;;;5055083;28;20025;-82
2021/07/21 02:00:55;;;;;;;20.42;11.48;;;15.60;75.00;;;;;;5063589;28;20029;-80
2021/07/21 02:03:22;;;;;;;16.95;11.45;;;15.60;75.20;;;;;;5073765;28;20041;-79
2021/07/21 02:05:48;;;;;;;17.67;11.60;;;15.60;75.10;;;;;;5059138;28;20032;-81
2021/07/21 02:08:18;;;;;;;18.67;10.82;;;15.60;74.90;;;;;;5057627;28;20025;-80
2021/07/21 02:10:45;;;;;;;17.55;11.20;;;15.60;75.00;;;;;;5057128;28;20033;-80
2021/07/21 02:13:12;;;;;;;17.80;10.65;;;15.60;74.90;;;;;;5056674;28;20029;-81
2021/07/21 02:15:40;;;;;;;17.75;11.57;;;15.60;75.00;;;;;;5056812;28;20028;-80
2021/07/21 02:18:07;;;;;;;16.85;10.95;;;15.50;75.30;;;;;;5056770;28;20104;-81
2021/07/21 02:20:34;;;;;;;19.20;11.15;;;15.40;75.50;;;;;;5056771;28;20025;-80
2021/07/21 02:23:00;;;;;;;18.65;11.50;;;15.40;75.80;;;;;;5056740;28;20036;-80
2021/07/21 02:25:27;;;;;;;16.90;11.07;;;15.30;76.30;;;;;;5056562;28;20029;-74
2021/07/21 02:27:53;;;;;;;19.25;11.23;;;15.40;76.10;;;;;;5056378;28;20082;-75
2021/07/21 02:30:20;;;;;;;19.83;11.93;;;15.40;75.80;;;;;;5056590;28;20103;-74
2021/07/21 02:33:10;;;;;;;18.27;11.60;;;15.40;75.60;;;;;;5056367;28;20376;-76
2021/07/21 02:35:36;;;;;;;18.20;11.68;;;15.40;75.70;;;;;;5056351;28;20036;-74
2021/07/21 02:38:03;;;;;;;16.27;11.45;;;15.30;75.70;;;;;;5038241;28;20512;-77
2021/07/21 02:40:29;;;;;;;16.83;11.30;;;15.30;75.70;;;;;;5038184;28;20021;-75
2021/07/21 02:42:55;;;;;;;19.25;11.60;;;15.30;75.80;;;;;;5056025;28;20029;-74
2021/07/21 02:45:21;;;;;;;18.13;11.10;;;15.30;76.30;;;;;;5056160;28;20025;-75
2021/07/21 02:47:47;;;;;;;18.38;11.48;;;15.30;76.30;;;;;;5056025;28;20064;-75
2021/07/21 02:50:16;;;;;;;20.13;11.68;;;15.20;76.30;;;;;;5055935;28;20021;-75
2021/07/21 02:52:53;;;;;;;17.02;10.77;;;15.30;76.30;;;;;;5038145;28;20095;-74
2021/07/21 02:55:27;;;;;;;17.45;11.52;;;15.30;76.20;;;;;;5055951;28;20424;-78
2021/07/21 02:57:55;;;;;;;17.67;10.95;;;15.30;76.40;;;;;;5056038;28;20021;-75
2021/07/21 03:00:26;;;;;;;18.38;11.02;;;15.20;76.20;;;;;;5055762;28;20103;-75
2021/07/21 03:02:53;;;;;;;16.35;10.13;;;15.20;76.30;;;;;;5055697;28;20027;-74
2021/07/21 03:05:23;;;;;;;16.40;10.07;;;15.30;76.30;;;;;;5055718;28;20045;-75
2021/07/21 03:07:52;;;;;;;16.90;10.95;;;15.30;76.10;;;;;;5055778;28;20025;-75
2021/07/21 03:10:18;;;;;;;15.60;10.63;;;15.40;75.70;;;;;;5055587;28;20024;-74
2021/07/21 03:12:49;;;;;;;15.93;10.27;;;15.30;75.90;;;;;;5055624;28;20064;-76
2021/07/21 03:15:15;;;;;;;15.18;10.93;;;15.40;75.70;;;;;;5054927;28;20478;-75
2021/07/21 03:17:45;;;;;;;16.75;10.63;;;15.40;75.40;;;;;;5055502;28;20078;-75
2021/07/21 03:20:12;;;;;;;16.23;10.77;;;15.40;75.50;;;;;;5055391;28;20063;-75
2021/07/21 03:22:40;;;;;;;16.85;11.07;;;15.40;75.40;;;;;;5055292;28;20074;-75
2021/07/21 03:25:07;;;;;;;15.77;11.00;;;15.30;75.60;;;;;;5055303;28;20025;-75
2021/07/21 03:27:35;;;;;;;16.73;11.05;;;15.30;75.60;;;;;;5055708;28;20025;-75
2021/07/21 03:30:03;;;;;;;16.13;10.48;;;15.20;76.10;;;;;;5056497;28;20467;-74
2021/07/21 03:32:28;;;;;;;15.40;10.60;;;15.20;76.10;;;;;;5056238;28;20568;-75
2021/07/21 03:34:55;;;;;;;15.90;11.00;;;15.10;76.10;;;;;;5055112;28;20037;-75
2021/07/21 03:37:22;;;;;;;15.40;10.10;;;15.20;76.20;;;;;;5055123;28;20104;-75
2021/07/21 03:39:55;;;;;;;18.50;11.05;;;15.20;76.00;;;;;;5055401;28;20385;-75
2021/07/21 03:42:26;;;;;;;17.00;11.45;;;15.20;76.00;;;;;;5055266;28;20021;-75
2021/07/21 03:44:56;;;;;;;14.80;10.40;;;15.20;76.00;;;;;;5055292;28;20021;-76
2021/07/21 03:47:21;;;;;;;19.90;11.27;;;15.20;75.80;;;;;;5054883;28;20541;-75
2021/07/21 03:49:47;;;;;;;19.05;11.95;;;15.20;76.00;;;;;;5036743;28;20135;-75
2021/07/21 03:52:14;;;;;;;15.70;10.68;;;15.10;76.40;;;;;;5054725;28;20065;-75
2021/07/21 03:54:41;;;;;;;16.17;11.63;;;15.00;76.60;;;;;;5054677;28;20086;-76
2021/07/21 03:57:07;;;;;;;20.02;11.18;;;15.10;76.60;;;;;;5055212;28;20098;-79
2021/07/21 03:59:36;;;;;;;17.63;11.32;;;15.10;76.80;;;;;;5054742;28;20029;-75
2021/07/21 04:02:02;;;;;;;16.33;10.77;;;15.00;76.30;;;;;;5054140;28;20033;-75
2021/07/21 04:04:29;;;;;;;14.23;10.68;;;15.00;76.40;;;;;;5052291;28;20063;-75
2021/07/21 04:06:57;;;;;;;20.80;11.18;;;15.00;76.70;;;;;;5053279;28;20028;-75
2021/07/21 04:09:25;;;;;;;17.77;10.23;;;14.90;76.80;;;;;;5054542;28;20485;-75
2021/07/21 04:11:55;;;;;;;16.00;10.75;;;15.00;77.10;;;;;;5054415;28;20070;-75
2021/07/21 04:14:22;;;;;;;17.58;10.50;;;15.00;77.10;;;;;;5054367;28;20040;-74
2021/07/21 04:16:51;;;;;;;21.52;11.60;;;15.00;76.80;;;;;;5054296;28;20024;-74
2021/07/21 04:19:18;;;;;;;14.57;10.40;;;15.00;76.70;;;;;;5054302;28;20436;-73
2021/07/21 04:21:49;;;;;;;14.73;9.77;;;15.00;76.50;;;;;;5054274;28;20029;-74
2021/07/21 04:24:16;;;;;;;16.15;11.18;;;15.10;76.50;;;;;;5054189;28;20434;-74
2021/07/21 04:26:43;;;;;;;13.55;10.13;;;15.10;76.40;;;;;;5053346;28;20385;-74
2021/07/21 04:29:14;;;;;;;18.08;10.32;;;15.20;76.30;;;;;;5059019;28;20056;-75
2021/07/21 04:31:41;;;;;;;16.48;10.65;;;15.20;76.00;;;;;;5059030;28;20021;-74
2021/07/21 04:34:10;;;;;;;15.13;10.02;;;15.20;75.90;;;;;;5054118;28;20040;-74
2021/07/21 04:36:38;;;;;;;16.15;10.27;;;15.20;76.00;;;;;;5053913;28;20021;-74
2021/07/21 04:39:05;;;;;;;17.33;11.80;;;15.40;75.90;;;;;;5053950;28;20029;-74
2021/07/21 04:41:31;;;;;;;14.75;10.43;;;15.40;75.40;;;;;;5054061;28;20021;-74
2021/07/21 04:43:57;;;;;;;17.52;10.98;;;15.40;75.30;;;;;;5053847;28;20037;-74
2021/07/21 04:46:23;;;;;;;16.42;10.30;;;15.40;75.40;;;;;;5053878;28;20424;-74
2021/07/21 04:48:49;;;;;;;16.77;10.02;;;15.50;75.30;;;;;;5035909;28;20033;-76
2021/07/21 04:51:17;;;;;;;14.85;10.93;;;15.60;75.00;;;;;;5053588;28;20442;-76
2021/07/21 04:53:43;;;;;;;19.00;11.23;;;15.60;74.80;;;;;;5053521;28;20029;-80
2021/07/21 04:56:11;;;;;;;15.05;10.13;;;15.60;74.60;;;;;;5053833;28;20025;-75
2021/07/21 04:58:36;;;;;;;17.30;10.55;;;15.70;74.80;;;;;;5053655;28;20220;-75
2021/07/21 05:01:02;;;;;;;18.25;10.95;;;15.80;74.70;;;;;;5053443;28;20472;-76
2021/07/21 05:03:28;;;;;;;14.82;9.93;;;15.80;74.50;;;;;;5053270;28;20022;-73
2021/07/21 05:05:53;;;;;;;17.58;10.48;;;15.80;74.70;;;;;;5053322;28;20194;-73
2021/07/21 05:08:19;;;;;;;17.45;9.98;;;15.80;74.80;;;;;;5053401;28;20021;-75
2021/07/21 05:10:45;;;;;;;18.45;10.27;;;15.80;74.70;;;;;;5052963;28;20381;-75
2021/07/21 05:13:10;;;;;;;19.58;10.95;;;16.00;74.70;;;;;;5052882;28;20029;-75
2021/07/21 05:15:36;;;;;;;16.25;10.15;;;16.10;74.40;;;;;;5052895;28;20586;-74
2021/07/21 05:18:02;;;;;;;16.13;9.85;;;16.20;73.90;;;;;;5053097;28;20028;-74
2021/07/21 05:20:27;;;;;;;16.42;10.77;;;16.30;73.80;;;;;;5053060;28;20033;-76
2021/07/21 05:22:53;;;;;;;17.08;10.25;;;16.40;73.40;;;;;;5052436;28;20349;-75
2021/07/21 05:25:19;;;;;;;15.52;10.55;;;16.50;73.20;;;;;;5052656;28;20064;-75
2021/07/21 05:27:45;;;;;;;18.75;11.30;;;16.50;72.70;;;;;;5052543;28;20067;-74
2021/07/21 05:30:13;;;;;;;22.42;11.25;;;16.60;72.00;;;;;;5052704;28;20025;-74
2021/07/21 05:32:38;;;;;;;17.50;11.68;;;16.60;72.10;;;;;;5052383;28;20021;-75
2021/07/21 05:35:06;;;;;;;15.85;10.52;;;16.60;71.80;;;;;;5052643;28;20083;-76
2021/07/21 05:37:32;;;;;;;16.95;10.25;;;16.60;72.10;;;;;;5052340;28;20485;-76
2021/07/21 05:39:58;;;;;;;17.45;10.55;;;16.60;72.10;;;;;;5052493;28;20113;-79
2021/07/21 05:42:24;;;;;;;23.88;12.00;;;16.80;72.30;;;;;;5052525;28;20500;-74
2021/07/21 05:44:49;;;;;;;14.68;11.07;;;16.80;72.00;;;;;;5052401;28;20032;-76
2021/07/21 05:47:15;;;;;;;21.55;10.65;;;16.80;71.70;;;;;;5052357;28;20024;-76
2021/07/21 05:49:41;;;;;;;13.18;9.68;;;16.90;71.80;;;;;;5052556;28;20029;-76
2021/07/21 05:52:06;;;;;;;15.25;10.02;;;17.00;71.50;;;;;;5052345;28;20028;-76
2021/07/21 05:54:36;;;;;;;14.85;10.45;;;17.20;71.40;;;;;;5034321;28;20037;-76
2021/07/21 05:57:06;;;;;;;16.40;10.20;;;17.40;71.30;;;;;;5052573;28;20021;-76
2021/07/21 05:59:32;;;;;;;15.05;10.48;;;17.40;70.90;;;;;;5053547;28;20036;-75
2021/07/21 06:01:58;;;;;;;13.07;9.60;;;17.50;70.50;;;;;;5052416;28;20028;-75
2021/07/21 06:04:23;;;;;;;15.73;10.45;;;17.60;70.00;;;;;;5052384;28;20045;-75
2021/07/21 06:06:49;;;;;;;18.58;11.18;;;17.70;69.80;;;;;;5034602;28;20420;-76
2021/07/21 06:09:14;;;;;;;15.38;10.48;;;17.80;69.00;;;;;;5052202;28;20113;-75
2021/07/21 06:11:40;;;;;;;14.00;10.63;;;17.80;69.10;;;;;;5052094;28;20045;-75
2021/07/21 06:14:06;;;;;;;16.15;10.70;;;18.00;69.00;;;;;;5051772;28;20035;-75
2021/07/21 06:16:32;;;;;;;14.60;10.90;;;18.10;68.00;;;;;;5052175;28;20055;-74
2021/07/21 06:18:58;;;;;;;16.10;10.48;;;18.20;67.00;;;;;;5053518;28;20035;-82
2021/07/21 06:21:24;;;;;;;16.60;9.25;;;18.30;66.60;;;;;;5056961;28;20103;-76
2021/07/21 06:23:50;;;;;;;18.35;11.07;;;18.60;71.70;;;;;;5057405;28;20025;-75
2021/07/21 06:26:15;;;;;;;16.10;10.75;;;19.00;72.90;;;;;;5055049;28;20054;-75
2021/07/21 06:28:42;;;;;;;16.13;10.10;;;19.20;68.50;;;;;;5051855;28;20088;-75
2021/07/21 06:31:07;;;;;;;18.20;10.55;;;19.40;66.40;;;;;;5051691;28;20019;-75
2021/07/21 06:33:33;;;;;;;19.10;11.52;;;19.60;65.30;;;;;;5052120;28;20033;-76
2021/07/21 06:35:59;;;;;;;19.23;11.50;;;19.80;63.50;;;;;;5050986;28;20064;-75
2021/07/21 06:38:25;;;;;;;18.83;11.63;;;19.90;62.70;;;;;;5052304;28;20013;-76
2021/07/21 06:40:50;;;;;;;21.67;12.18;;;19.90;62.70;;;;;;5051890;28;20033;-76
2021/07/21 06:43:16;;;;;;;19.42;12.60;;;20.10;62.60;;;;;;5052068;28;20079;-76
2021/07/21 06:45:42;;;;;;;18.33;11.30;;;20.20;61.70;;;;;;5052018;28;20067;-76
2021/07/21 06:48:07;;;;;;;16.42;11.75;;;20.30;61.70;;;;;;5052104;28;20033;-75
2021/07/21 06:50:34;;;;;;;16.73;11.95;;;20.40;61.20;;;;;;5054456;28;20025;-75
2021/07/21 06:53:00;;;;;;;22.17;11.77;;;20.50;60.20;;;;;;5055834;28;20533;-76
2021/07/21 06:55:25;;;;;;;17.67;12.35;;;20.60;60.30;;;;;;5055704;28;20109;-75
2021/07/21 06:57:51;;;;;;;21.10;12.43;;;20.60;59.40;;;;;;5055754;28;20100;-75
2021/07/21 07:00:17;;;;;;;17.42;12.48;;;20.60;60.00;;;;;;5055690;28;20033;-75
2021/07/21 07:02:42;;;;;;;19.90;12.27;;;20.70;59.20;;;;;;5055398;28;20087;-75
2021/07/21 07:05:08;;;;;;;19.13;11.93;;;20.50;60.20;;;;;;5055316;28;20495;-74
2021/07/21 07:07:34;;;;;;;20.95;12.88;;;20.50;60.50;;;;;;5055401;28;20064;-75
2021/07/21 07:10:00;;;;;;;18.58;12.75;;;20.20;60.70;;;;;;5055361;28;20032;-75
2021/07/21 07:12:26;;;;;;;19.05;11.93;;;19.90;61.30;;;;;;5055365;28;20079;-75
2021/07/21 07:14:51;;;;;;;19.27;11.13;;;19.90;60.80;;;;;;5055272;28;20029;-76
2021/07/21 07:17:18;;;;;;;19.80;12.38;;;20.10;61.90;;;;;;5055582;28;20104;-75
2021/07/21 07:19:43;;;;;;;20.35;11.40;;;20.30;61.50;;;;;;5055200;28;20071;-75
2021/07/21 07:22:09;;;;;;;21.25;13.35;;;20.50;60.20;;;;;;5055367;28;20032;-75
2021/07/21 07:24:34;;;;;;;18.13;12.05;;;20.70;59.70;;;;;;5055315;28;20071;-74
2021/07/21 07:27:01;;;;;;;21.33;14.20;;;20.70;59.50;;;;;;5055242;28;20035;-76
2021/07/21 07:29:27;;;;;;;18.77;12.30;;;20.60;59.20;;;;;;5055107;28;20025;-75
2021/07/21 07:31:53;;;;;;;20.98;13.05;;;20.30;61.10;;;;;;5055176;28;20021;-77
2021/07/21 07:34:19;;;;;;;19.10;11.75;;;20.30;62.50;;;;;;5036901;28;20040;-74
2021/07/21 07:36:45;;;;;;;21.40;12.98;;;20.40;62.40;;;;;;5054798;28;20025;-76
2021/07/21 07:39:11;;;;;;;18.90;11.80;;;20.20;61.60;;;;;;5054898;28;20048;-77
2021/07/21 07:41:37;;;;;;;18.17;11.70;;;20.10;63.10;;;;;;5054957;28;20060;-77
2021/07/21 07:44:05;;;;;;;17.17;11.80;;;20.30;62.80;;;;;;5054907;28;20017;-78
2021/07/21 07:46:30;;;;;;;22.17;11.88;;;20.60;61.90;;;;;;5054989;28;20028;-75
2021/07/21 07:48:57;;;;;;;18.98;12.77;;;20.80;60.80;;;;;;5055243;28;20473;-78
2021/07/21 07:51:24;;;;;;;22.88;12.77;;;20.90;59.30;;;;;;5053611;28;20028;-76
2021/07/21 07:53:50;;;;;;;25.38;13.75;;;20.60;60.00;;;;;;5054650;28;20017;-75
2021/07/21 07:56:16;;;;;;;21.35;12.38;;;20.70;61.30;;;;;;5054562;28;20037;-76
2021/07/21 07:58:42;;;;;;;19.33;12.48;;;20.70;62.60;;;;;;5054490;28;20028;-76
2021/07/21 08:01:08;;;;;;;39.10;16.67;;;20.80;61.10;;;;;;5054534;28;20029;-78
2021/07/21 08:03:33;;;;;;;25.33;13.18;;;20.90;61.40;;;;;;5054406;28;20071;-75
2021/07/21 08:05:59;;;;;;;30.38;14.45;;;21.20;60.70;;;;;;5054598;28;20037;-74
2021/07/21 08:08:26;;;;;;;20.48;13.27;;;21.10;59.90;;;;;;5054429;28;20023;-73
2021/07/21 08:10:52;;;;;;;23.67;13.30;;;21.30;59.60;;;;;;5054690;28;20363;-74
2021/07/21 08:13:22;;;;;;;22.23;13.13;;;21.40;59.60;;;;;;5054330;28;20017;-76
2021/07/21 08:15:49;;;;;;;20.88;12.45;;;21.20;59.60;;;;;;5054138;28;20565;-75
2021/07/21 08:18:15;;;;;;;21.48;12.25;;;21.00;60.10;;;;;;5054287;28;20017;-74
2021/07/21 08:20:42;;;;;;;22.35;12.55;;;21.00;60.90;;;;;;5053976;28;20053;-74
2021/07/21 08:23:08;;;;;;;20.90;13.45;;;21.10;60.80;;;;;;5053996;28;20025;-74
2021/07/21 08:25:34;;;;;;;21.80;14.02;;;21.10;61.10;;;;;;5054055;28;20107;-74
2021/07/21 08:28:00;;;;;;;21.40;12.43;;;21.00;60.20;;;;;;5053798;28;20067;-75
2021/07/21 08:30:26;;;;;;;19.13;11.80;;;20.80;61.10;;;;;;5053733;28;20021;-75
2021/07/21 08:32:53;;;;;;;19.80;13.25;;;20.80;61.60;;;;;;5053749;28;20520;-73
2021/07/21 08:35:22;;;;;;;22.65;12.30;;;20.90;61.10;;;;;;5053700;28;20040;-74
2021/07/21 08:37:48;;;;;;;23.35;13.02;;;21.00;60.30;;;;;;5053311;28;20537;-74
2021/07/21 08:40:16;;;;;;;18.42;11.93;;;20.80;61.30;;;;;;5053552;28;20106;-74
2021/07/21 08:42:42;;;;;;;17.63;10.93;;;20.80;62.00;;;;;;5053729;28;20063;-75
2021/07/21 08:45:09;;;;;;;23.38;12.80;;;21.00;62.90;;;;;;5053372;28;20448;-75
2021/07/21 08:47:35;;;;;;;21.42;13.10;;;21.20;61.50;;;;;;5053580;28;20032;-75
2021/07/21 08:50:06;;;;;;;20.98;12.93;;;21.40;61.10;;;;;;5053532;28;20025;-75
2021/07/21 08:52:32;;;;;;;20.60;13.88;;;21.40;61.20;;;;;;5053472;28;20021;-74
2021/07/21 08:55:00;;;;;;;18.00;12.32;;;21.40;62.30;;;;;;5053312;28;20036;-75
2021/07/21 08:57:32;;;;;;;22.15;13.10;;;21.50;62.30;;;;;;5053480;28;20025;-74
2021/07/21 09:00:06;;;;;;;19.60;12.90;;;21.70;61.40;;;;;;5053493;28;20087;-74
2021/07/21 09:02:32;;;;;;;18.83;12.32;;;21.70;61.10;;;;;;5053287;28;20033;-74
2021/07/21 09:04:58;;;;;;;22.38;12.80;;;21.70;61.40;;;;;;5053251;28;20128;-74
2021/07/21 09:07:24;;;;;;;22.50;12.85;;;21.80;62.50;;;;;;5053440;28;20132;-74
2021/07/21 09:09:50;;;;;;;17.60;12.00;;;21.80;61.70;;;;;;5053286;28;20025;-74
2021/07/21 09:12:16;;;;;;;26.63;13.00;;;22.10;61.10;;;;;;5052866;28;20032;-74
2021/07/21 09:14:42;;;;;;;20.25;12.70;;;22.40;60.50;;;;;;5053125;28;20106;-73
2021/07/21 09:17:09;;;;;;;16.13;10.80;;;22.70;58.60;;;;;;5053036;28;20422;-74
2021/07/21 09:19:40;;;;;;;15.90;11.70;;;22.80;57.90;;;;;;5053132;28;20382;-74
2021/07/21 09:22:36;;;;;;;18.35;13.40;;;22.90;57.30;;;;;;5053089;28;20021;-75
2021/07/21 09:25:23;;;;;;;20.70;11.88;;;23.20;56.20;;;;;;5036776;28;20036;-74
2021/07/21 09:27:52;;;;;;;21.45;11.68;;;23.10;56.40;;;;;;5052931;28;20381;-75
2021/07/21 09:30:27;;;;;;;20.25;12.23;;;23.30;57.00;;;;;;5052934;28;20017;-74
2021/07/21 09:32:57;;;;;;;;;;;23.20;56.60;;;;;;5053361;28;20021;-75
2021/07/21 09:35:26;;;;;;;20.15;11.35;;;23.10;57.80;;;;;;5052717;28;20364;-74
2021/07/21 09:37:52;;;;;;;17.02;10.93;;;23.20;56.70;;;;;;5052824;28;20489;-75
2021/07/21 09:40:18;;;;;;;16.50;11.38;;;23.20;56.90;;;;;;5052778;28;20064;-75
2021/07/21 09:42:44;;;;;;;20.42;12.52;;;23.20;55.90;;;;;;5052631;28;20422;-75
2021/07/21 09:45:14;;;;;;;17.55;11.43;;;23.20;56.10;;;;;;5052572;28;20047;-76
2021/07/21 09:47:54;;;;;;;20.75;11.10;;;23.30;56.00;;;;;;5052389;28;20071;-75
2021/07/21 09:50:24;;;;;;;18.90;11.63;;;23.50;55.90;;;;;;5052622;28;20021;-75
2021/07/21 09:53:06;;;;;;;18.92;12.40;;;23.50;54.80;;;;;;5052545;28;20028;-75
2021/07/21 09:55:34;;;;;;;18.60;12.43;;;23.50;54.90;;;;;;5052712;28;20041;-74
2021/07/21 09:58:11;;;;;;;23.17;12.30;;;23.50;54.70;;;;;;5052547;28;20363;-76
2021/07/21 10:00:47;;;;;;;15.02;11.45;;;23.50;55.30;;;;;;5052059;28;20025;-75
2021/07/21 10:03:21;;;;;;;19.60;11.70;;;23.60;55.70;;;;;;5052175;28;20370;-75
2021/07/21 10:06:00;;;;;;;20.02;12.40;;;23.90;54.60;;;;;;5051770;28;20497;-75
2021/07/21 10:08:43;;;;;;;15.02;10.15;;;24.10;54.50;;;;;;5051911;28;20165;-74
2021/07/21 10:11:20;;;;;;;15.57;10.50;;;24.50;53.20;;;;;;5051793;28;20022;-75
2021/07/21 10:13:46;;;;;;;14.45;9.70;;;24.90;52.20;;;;;;5051662;28;20032;-76
2021/07/21 10:16:28;;;;;;;19.25;11.15;;;25.20;51.00;;;;;;5048232;28;20082;-73
2021/07/21 10:19:01;;;;;;;17.02;11.50;;;25.20;49.00;;;;;;5050670;28;20017;-74
2021/07/21 10:21:27;;;;;;;19.02;11.20;;;25.00;51.30;;;;;;5051866;28;20086;-74
2021/07/21 10:23:53;;;;;;;19.25;10.75;;;24.80;50.00;;;;;;5052181;28;20100;-74
2021/07/21 10:26:19;;;;;;;15.25;11.65;;;24.80;50.60;;;;;;5056057;28;20032;-74
2021/07/21 10:28:45;;;;;;;19.42;11.15;;;24.80;50.70;;;;;;5038223;28;20029;-75
2021/07/21 10:31:10;;;;;;;17.80;11.55;;;24.90;50.50;;;;;;5055974;28;20048;-74
2021/07/21 10:33:36;;;;;;;22.08;11.50;;;24.90;50.40;;;;;;5056103;28;20025;-75
2021/07/21 10:36:02;;;;;;;17.92;11.90;;;24.80;50.10;;;;;;5056109;28;20032;-75
2021/07/21 10:38:29;;;;;;;18.92;12.10;;;24.90;50.50;;;;;;5056152;28;20029;-74
2021/07/21 10:40:56;;;;;;;16.88;11.15;;;24.90;50.40;;;;;;5055700;28;20116;-74
2021/07/21 10:43:22;;;;;;;16.23;11.40;;;25.00;50.10;;;;;;5055738;28;20071;-74
2021/07/21 10:45:48;;;;;;;14.63;10.50;;;25.20;50.90;;;;;;5055508;28;20028;-75
2021/07/21 10:48:35;;;;;;;21.48;12.70;;;25.60;49.30;;;;;;5055541;28;20091;-74
2021/07/21 10:51:07;;;;;;;20.40;12.40;;;25.80;47.20;;;;;;5055482;28;20052;-76
2021/07/21 10:59:21;;;;;;;15.55;12.13;;;25.40;48.80;;;;;;5047188;28;20083;-76
2021/07/21 11:01:52;;;;;;;19.63;12.25;;;25.50;50.00;;;;;;5054833;28;20521;-75
2021/07/21 11:04:19;;;;;;;20.85;11.88;;;25.70;49.30;;;;;;5063620;28;20123;-75
2021/07/21 11:06:50;;;;;;;16.52;12.32;;;25.90;47.60;;;;;;5075549;28;20044;-74
2021/07/21 11:09:25;;;;;;;17.10;12.20;;;25.80;47.00;;;;;;5075323;28;20142;-74
2021/07/21 11:11:56;;;;;;;17.90;11.13;;;25.90;47.00;;;;;;5075185;28;20063;-74
2021/07/21 11:14:24;;;;;;;15.90;11.57;;;26.10;47.00;;;;;;5075213;28;20074;-75
2021/07/21 11:16:52;;;;;;;18.80;12.18;;;26.20;46.40;;;;;;5074918;28;20048;-74
2021/07/21 11:19:43;;;;;;;20.15;11.90;;;26.30;45.20;;;;;;5057213;28;20045;-74
2021/07/21 11:22:22;;;;;;;16.35;11.50;;;26.30;45.40;;;;;;5075220;28;20393;-74
2021/07/21 11:25:06;;;;;;;15.57;11.63;;;26.40;45.20;;;;;;5075133;28;20033;-76
2021/07/21 11:27:45;;;;;;;18.85;12.43;;;26.50;44.70;;;;;;5057187;28;20115;-74
2021/07/21 11:30:36;;;;;;;13.13;10.75;;;26.90;44.40;;;;;;5075100;28;20104;-74
2021/07/21 11:33:39;;;;;;;18.60;12.30;;;27.40;44.60;;;;;;5075211;28;20112;-74
2021/07/21 11:36:05;;;;;;;21.30;12.80;;;27.60;41.80;;;;;;5074365;28;20097;-74
2021/07/21 11:38:51;;;;;;;19.65;12.07;;;27.30;41.00;;;;;;5074912;28;20424;-76
2021/07/21 11:41:48;;;;;;;18.63;11.27;;;27.30;41.90;;;;;;5074980;28;20024;-74
2021/07/21 11:44:30;;;;;;;14.27;10.70;;;27.50;41.10;;;;;;5074787;28;20032;-75
2021/07/21 11:46:57;;;;;;;13.77;10.63;;;27.60;40.80;;;;;;5074585;28;20053;-76
2021/07/21 11:49:25;;;;;;;16.58;11.48;;;28.00;42.40;;;;;;5074760;28;20021;-75
2021/07/21 11:51:59;;;;;;;14.32;11.43;;;28.40;41.50;;;;;;5074529;28;20082;-75
2021/07/21 11:54:36;;;;;;;17.42;11.35;;;28.70;39.70;;;;;;5074508;28;20040;-75
2021/07/21 11:57:07;;;;;;;15.18;11.60;;;28.90;38.60;;;;;;5074549;28;20032;-75
2021/07/21 11:59:35;;;;;;;16.25;11.45;;;28.70;38.50;;;;;;5074415;28;20354;-75
2021/07/21 12:02:04;;;;;;;14.45;11.80;;;28.80;38.40;;;;;;5074319;28;20484;-75
2021/07/21 12:04:30;;;;;;;15.50;11.77;;;28.80;38.50;;;;;;5074153;28;20500;-74
2021/07/21 12:06:55;;;;;;;17.30;12.68;;;28.30;38.80;;;;;;5074264;28;20036;-76
2021/07/21 12:09:28;;;;;;;19.05;12.10;;;28.10;39.80;;;;;;5074473;28;20032;-76
2021/07/21 12:11:56;;;;;;;15.85;11.50;;;27.90;40.00;;;;;;5073945;28;20100;-74
2021/07/21 12:14:23;;;;;;;15.95;10.77;;;28.20;40.20;;;;;;5073912;28;20126;-73
2021/07/21 12:16:51;;;;;;;12.98;10.35;;;28.60;39.30;;;;;;5074126;28;20078;-74
2021/07/21 12:19:23;;;;;;;17.33;11.20;;;29.00;39.40;;;;;;5074083;28;20035;-75
2021/07/21 12:22:06;;;;;;;14.43;10.63;;;29.40;37.70;;;;;;5073978;28;20017;-74
2021/07/21 12:24:38;;;;;;;18.00;11.32;;;29.70;36.30;;;;;;5074112;28;20111;-74
2021/07/21 12:27:05;;;;;;;13.82;10.55;;;29.80;36.50;;;;;;5074055;28;20469;-75
2021/07/21 12:29:31;;;;;;;13.65;10.65;;;30.00;37.20;;;;;;5073828;28;20024;-75
2021/07/21 12:32:14;;;;;;;12.40;9.90;;;30.10;37.00;;;;;;5073602;28;20020;-75
2021/07/21 12:34:47;;;;;;;15.48;11.88;;;30.40;36.80;;;;;;5073476;28;20032;-74
2021/07/21 12:37:15;;;;;;;15.60;11.63;;;30.50;35.90;;;;;;5073783;28;20059;-73
2021/07/21 12:39:42;;;;;;;13.05;11.60;;;30.30;35.10;;;;;;5073312;28;20086;-73
2021/07/21 12:42:20;;;;;;;14.00;11.13;;;30.20;35.20;;;;;;5073549;28;20103;-74
2021/07/21 12:44:48;;;;;;;14.55;11.60;;;30.10;36.40;;;;;;5073287;28;20032;-73
2021/07/21 12:47:22;;;;;;;15.88;11.35;;;30.00;35.80;;;;;;5072728;28;20491;-74